createdAt,value
2019-04-28T00:02:45.329Z,9.65
2019-04-28T00:05:34.767Z,9.60
2019-04-28T00:08:24.213Z,9.57
2019-04-28T00:11:13.341Z,9.55
2019-04-28T00:14:02.959Z,9.52
2019-04-28T00:16:52.410Z,9.50
2019-04-28T00:19:42.324Z,9.47
2019-04-28T00:22:49.340Z,9.44
2019-04-28T00:25:43.535Z,9.42
2019-04-28T00:28:33.570Z,9.40
2019-04-28T00:31:23.479Z,9.38
2019-04-28T00:34:12.387Z,9.35
2019-04-28T00:37:18.232Z,9.35
2019-04-28T00:40:10.990Z,9.31
2019-04-28T00:43:00.892Z,9.32
2019-04-28T00:45:52.099Z,9.32
2019-04-28T00:48:41.235Z,9.31
2019-04-28T00:51:31.328Z,9.32
2019-04-28T00:54:21.853Z,9.32
2019-04-28T00:57:11.572Z,9.33
2019-04-28T01:00:02.406Z,9.35
2019-04-28T01:02:52.459Z,9.35
2019-04-28T01:05:42.023Z,9.34
2019-04-28T01:08:31.182Z,9.36
2019-04-28T01:11:23.621Z,9.36
2019-04-28T01:14:13.045Z,9.38
2019-04-28T01:17:09.813Z,9.39
2019-04-28T01:20:01.022Z,9.39
2019-04-28T01:22:49.998Z,9.39
2019-04-28T01:25:40.105Z,9.41
2019-04-28T01:28:30.063Z,9.42
2019-04-28T01:31:29.503Z,9.41
2019-04-28T01:34:21.203Z,9.43
2019-04-28T01:37:10.616Z,9.41
2019-04-28T01:39:59.757Z,9.41
2019-04-28T01:42:49.990Z,9.42
2019-04-28T01:45:39.771Z,9.42
2019-04-28T01:48:31.504Z,9.41
2019-04-28T01:51:20.952Z,9.41
2019-04-28T01:54:11.730Z,9.41
2019-04-28T01:57:01.495Z,9.41
2019-04-28T01:59:51.487Z,9.41
2019-04-28T02:02:40.844Z,9.41
2019-04-28T02:05:30.682Z,9.42
2019-04-28T02:08:21.555Z,9.40
2019-04-28T02:11:11.144Z,9.41
2019-04-28T02:14:00.886Z,9.38
2019-04-28T02:16:50.466Z,9.39
2019-04-28T02:19:41.042Z,9.36
2019-04-28T02:22:55.469Z,9.35
2019-04-28T02:25:44.704Z,9.36
2019-04-28T02:28:33.667Z,9.35
2019-04-28T02:31:24.382Z,9.32
2019-04-28T02:34:13.946Z,9.32
2019-04-28T02:37:03.434Z,9.32
2019-04-28T02:39:53.188Z,9.30
2019-04-28T02:42:42.723Z,9.29
2019-04-28T02:45:32.259Z,9.29
2019-04-28T02:48:25.297Z,9.29
2019-04-28T02:51:22.108Z,9.29
2019-04-28T02:54:10.955Z,9.28
2019-04-28T02:57:01.386Z,9.29
2019-04-28T02:59:51.407Z,9.28
2019-04-28T03:02:41.613Z,9.29
2019-04-28T03:05:33.474Z,9.29
2019-04-28T03:08:22.255Z,9.29
2019-04-28T03:11:11.405Z,9.27
2019-04-28T03:14:01.057Z,9.29
2019-04-28T03:16:51.062Z,9.30
2019-04-28T03:19:41.562Z,9.28
2019-04-28T03:22:33.627Z,9.27
2019-04-28T03:25:41.036Z,9.29
2019-04-28T03:28:51.176Z,9.28
2019-04-28T03:32:10.104Z,9.28
2019-04-28T03:34:44.412Z,9.28
2019-04-28T03:37:34.306Z,9.28
2019-04-28T03:40:23.962Z,9.28
2019-04-28T03:43:14.176Z,9.28
2019-04-28T03:46:10.580Z,9.29
2019-04-28T03:49:00.802Z,9.29
2019-04-28T03:51:50.654Z,9.29
2019-04-28T03:54:41.030Z,9.28
2019-04-28T03:57:31.553Z,9.29
2019-04-28T04:00:22.026Z,9.28
2019-04-28T04:03:12.266Z,9.29
2019-04-28T04:06:01.591Z,9.29
2019-04-28T04:08:50.657Z,9.28
2019-04-28T04:11:45.929Z,9.27
2019-04-28T04:14:44.186Z,9.28
2019-04-28T04:17:41.289Z,9.28
2019-04-28T04:20:31.252Z,9.28
2019-04-28T04:23:23.113Z,9.27
2019-04-28T04:26:11.804Z,9.26
2019-04-28T04:29:01.537Z,9.28
2019-04-28T04:31:51.272Z,9.27
2019-04-28T04:34:41.297Z,9.27
2019-04-28T04:37:30.937Z,9.27
2019-04-28T04:40:21.040Z,9.27
2019-04-28T04:43:11.457Z,9.27
2019-04-28T04:46:22.820Z,9.28
2019-04-28T04:49:12.626Z,9.29
2019-04-28T04:52:02.165Z,9.29
2019-04-28T04:54:52.009Z,9.29
2019-04-28T04:57:41.476Z,9.30
2019-04-28T05:00:40.436Z,9.30
2019-04-28T05:03:33.696Z,9.32
2019-04-28T05:06:35.583Z,9.34
2019-04-28T05:09:25.157Z,9.36
2019-04-28T05:12:14.221Z,9.36
2019-04-28T05:15:04.755Z,9.37
2019-04-28T05:17:54.680Z,9.38
2019-04-28T05:20:43.645Z,9.37
2019-04-28T05:23:46.436Z,9.37
2019-04-28T05:26:35.987Z,9.38
2019-04-28T05:29:26.735Z,9.38
2019-04-28T05:32:16.104Z,9.39
2019-04-28T05:35:05.911Z,9.40
2019-04-28T05:37:55.591Z,9.43
2019-04-28T05:40:44.497Z,9.47
2019-04-28T05:43:34.329Z,9.51
2019-04-28T05:46:24.141Z,9.55
2019-04-28T05:49:24.097Z,9.59
2019-04-28T05:52:40.310Z,9.62
2019-04-28T05:55:41.862Z,9.65
2019-04-28T05:58:43.405Z,9.67
2019-04-28T06:01:50.652Z,9.68
2019-04-28T06:04:40.505Z,9.71
2019-04-28T06:07:38.266Z,9.74
2019-04-28T06:10:27.509Z,9.77
2019-04-28T06:13:17.328Z,9.81
2019-04-28T06:16:06.986Z,9.85
2019-04-28T06:18:56.255Z,9.91
2019-04-28T06:21:45.375Z,9.97
2019-04-28T06:24:34.935Z,10.03
2019-04-28T06:27:24.469Z,10.07
2019-04-28T06:30:13.369Z,10.11
2019-04-28T06:33:07.955Z,10.13
2019-04-28T06:35:53.091Z,10.15
2019-04-28T06:38:42.655Z,10.17
2019-04-28T06:41:32.259Z,10.19
2019-04-28T06:44:22.020Z,10.23
2019-04-28T06:47:11.698Z,10.28
2019-04-28T06:50:01.408Z,10.33
2019-04-28T06:52:50.341Z,10.43
2019-04-28T06:55:39.824Z,10.51
2019-04-28T06:58:29.871Z,10.62
2019-04-28T07:01:19.083Z,10.73
2019-04-28T07:04:10.862Z,10.85
2019-04-28T07:07:00.668Z,10.98
2019-04-28T07:09:49.734Z,11.08
2019-04-28T07:12:58.104Z,11.17
2019-04-28T07:15:48.016Z,11.30
2019-04-28T07:18:37.907Z,11.40
2019-04-28T07:21:59.036Z,11.51
2019-04-28T07:24:48.580Z,11.60
2019-04-28T07:27:37.960Z,11.70
2019-04-28T07:30:28.345Z,11.77
2019-04-28T07:33:17.437Z,11.84
2019-04-28T07:36:07.828Z,11.89
2019-04-28T07:38:57.551Z,11.96
2019-04-28T07:41:46.696Z,12.02
2019-04-28T07:44:35.442Z,12.07
2019-04-28T07:47:25.060Z,12.16
2019-04-28T07:50:14.380Z,12.25
2019-04-28T07:53:12.856Z,12.35
2019-04-28T07:56:01.856Z,12.42
2019-04-28T07:58:51.552Z,12.48
2019-04-28T08:01:41.212Z,12.50
2019-04-28T08:04:31.021Z,12.54
2019-04-28T08:07:20.387Z,12.57
2019-04-28T08:10:10.498Z,12.62
2019-04-28T08:12:59.216Z,12.65
2019-04-28T08:15:48.939Z,12.69
2019-04-28T08:18:37.746Z,12.77
2019-04-28T08:21:27.422Z,12.85
2019-04-28T08:24:17.238Z,12.92
2019-04-28T08:27:06.506Z,13.01
2019-04-28T08:29:58.705Z,13.08
2019-04-28T08:32:54.921Z,13.15
2019-04-28T08:35:44.412Z,13.20
2019-04-28T08:38:38.956Z,13.22
2019-04-28T08:41:28.195Z,13.22
2019-04-28T08:44:17.674Z,13.23
2019-04-28T08:47:06.303Z,13.25
2019-04-28T08:49:56.015Z,13.26
2019-04-28T08:52:45.003Z,13.27
2019-04-28T08:55:35.030Z,13.30
2019-04-28T08:58:26.812Z,13.33
2019-04-28T09:01:16.347Z,13.34
2019-04-28T09:04:15.130Z,13.36
2019-04-28T09:06:56.994Z,13.37
2019-04-28T09:09:46.831Z,13.39
2019-04-28T09:12:39.751Z,13.38
2019-04-28T09:15:29.647Z,13.41
2019-04-28T09:18:19.562Z,13.43
2019-04-28T09:21:09.216Z,13.46
2019-04-28T09:23:59.000Z,13.50
2019-04-28T09:26:49.944Z,13.55
2019-04-28T09:29:38.918Z,13.63
2019-04-28T09:32:28.814Z,13.70
2019-04-28T09:35:18.572Z,13.77
2019-04-28T09:38:07.593Z,13.87
2019-04-28T09:40:57.586Z,13.93
2019-04-28T09:44:01.375Z,13.98
2019-04-28T09:46:51.496Z,14.01
2019-04-28T09:49:41.124Z,14.03
2019-04-28T09:52:30.847Z,14.01
2019-04-28T09:55:20.749Z,14.01
2019-04-28T09:58:09.649Z,14.00
2019-04-28T10:00:59.204Z,14.00
2019-04-28T10:03:50.018Z,14.00
2019-04-28T10:06:39.479Z,13.98
2019-04-28T10:09:28.780Z,13.98
2019-04-28T10:12:26.817Z,13.98
2019-04-28T10:15:09.997Z,13.98
2019-04-28T10:17:59.915Z,14.00
2019-04-28T10:20:48.884Z,13.99
2019-04-28T10:23:41.053Z,14.00
2019-04-28T10:26:30.643Z,14.02
2019-04-28T10:29:19.497Z,14.03
2019-04-28T10:32:08.322Z,14.06
2019-04-28T10:34:58.128Z,14.09
2019-04-28T10:37:48.105Z,14.12
2019-04-28T10:40:43.946Z,14.16
2019-04-28T10:43:33.270Z,14.20
2019-04-28T10:46:22.853Z,14.28
2019-04-28T10:49:12.095Z,14.35
2019-04-28T10:52:01.161Z,14.43
2019-04-28T10:54:50.132Z,14.51
2019-04-28T10:57:40.068Z,14.62
2019-04-28T11:00:31.008Z,14.69
2019-04-28T11:03:19.826Z,14.78
2019-04-28T11:06:09.103Z,14.87
2019-04-28T11:09:04.054Z,14.98
2019-04-28T11:11:53.798Z,15.06
2019-04-28T11:14:43.821Z,15.14
2019-04-28T11:17:34.783Z,15.22
2019-04-28T11:20:25.525Z,15.30
2019-04-28T11:23:15.451Z,15.40
2019-04-28T11:26:05.121Z,15.48
2019-04-28T11:28:55.109Z,15.55
2019-04-28T11:31:44.698Z,15.64
2019-04-28T11:34:47.097Z,15.71
2019-04-28T11:37:36.000Z,15.82
2019-04-28T11:40:25.004Z,15.92
2019-04-28T11:43:15.663Z,16.02
2019-04-28T11:46:09.501Z,16.11
2019-04-28T11:49:00.288Z,16.20
2019-04-28T11:51:50.993Z,16.29
2019-04-28T11:54:40.782Z,16.41
2019-04-28T11:57:30.733Z,16.53
2019-04-28T12:00:30.737Z,16.47
2019-04-28T12:03:21.381Z,16.43
2019-04-28T12:06:12.324Z,16.61
2019-04-28T12:09:18.714Z,16.72
2019-04-28T12:12:21.040Z,16.79
2019-04-28T12:15:21.220Z,16.84
2019-04-28T12:18:36.525Z,16.89
2019-04-28T12:21:26.288Z,16.93
2019-04-28T12:24:17.078Z,16.96
2019-04-28T12:27:06.708Z,16.98
2019-04-28T12:29:56.388Z,16.99
2019-04-28T12:32:45.830Z,17.02
2019-04-28T12:35:46.691Z,17.02
2019-04-28T12:38:26.196Z,17.04
2019-04-28T12:41:15.757Z,17.04
2019-04-28T12:44:05.269Z,17.04
2019-04-28T12:46:54.040Z,17.04
2019-04-28T12:49:55.060Z,17.05
2019-04-28T12:52:44.187Z,17.05
2019-04-28T12:55:33.587Z,17.06
2019-04-28T12:58:23.154Z,17.05
2019-04-28T13:01:23.277Z,17.05
2019-04-28T13:04:21.480Z,17.06
2019-04-28T13:07:11.156Z,17.10
2019-04-28T13:10:00.635Z,17.11
2019-04-28T13:12:49.407Z,17.16
2019-04-28T13:15:38.654Z,17.21
2019-04-28T13:18:27.580Z,17.27
2019-04-28T13:21:17.079Z,17.31
2019-04-28T13:24:07.645Z,17.35
2019-04-28T13:26:57.039Z,17.39
2019-04-28T13:29:47.107Z,17.42
2019-04-28T13:32:37.010Z,17.45
2019-04-28T13:35:26.619Z,17.51
2019-04-28T13:38:16.008Z,17.53
2019-04-28T13:41:07.742Z,17.55
2019-04-28T13:43:57.865Z,17.60
2019-04-28T13:46:49.140Z,17.65
2019-04-28T13:49:51.493Z,17.69
2019-04-28T13:52:41.278Z,17.75
2019-04-28T13:56:04.390Z,17.82
2019-04-28T13:59:16.295Z,17.90
2019-04-28T14:02:13.237Z,17.98
2019-04-28T14:05:21.588Z,18.03
2019-04-28T14:08:11.525Z,18.08
2019-04-28T14:11:01.221Z,18.12
2019-04-28T14:13:50.806Z,18.17
2019-04-28T14:16:41.042Z,18.21
2019-04-28T14:19:33.160Z,18.24
2019-04-28T14:22:27.649Z,18.26
2019-04-28T14:25:20.261Z,18.28
2019-04-28T14:28:10.640Z,18.31
2019-04-28T14:31:02.859Z,18.32
2019-04-28T14:33:53.667Z,18.35
2019-04-28T14:36:44.404Z,18.39
2019-04-28T14:39:39.388Z,18.42
2019-04-28T14:42:33.707Z,18.43
2019-04-28T14:45:24.439Z,18.43
2019-04-28T14:48:16.042Z,18.45
2019-04-28T14:51:10.027Z,18.46
2019-04-28T14:53:59.767Z,18.47
2019-04-28T14:56:51.716Z,18.48
2019-04-28T14:59:47.209Z,18.47
2019-04-28T15:02:57.287Z,18.46
2019-04-28T15:06:13.472Z,18.46
2019-04-28T15:09:19.918Z,18.46
2019-04-28T15:12:15.914Z,18.46
2019-04-28T15:15:10.107Z,18.48
2019-04-28T15:18:03.486Z,18.48
2019-04-28T15:20:54.068Z,18.50
2019-04-28T15:23:46.855Z,18.50
2019-04-28T15:26:42.086Z,18.50
2019-04-28T15:29:34.985Z,18.08
2019-04-28T15:32:24.326Z,18.21
2019-04-28T15:35:15.631Z,18.22
2019-04-28T15:38:05.299Z,18.22
2019-04-28T15:40:56.106Z,18.21
2019-04-28T15:43:46.194Z,18.21
2019-04-28T15:46:37.410Z,18.20
2019-04-28T15:49:27.243Z,18.18
2019-04-28T15:52:16.947Z,18.17
2019-04-28T15:55:07.800Z,18.16
2019-04-28T15:57:57.456Z,18.16
2019-04-28T16:00:48.556Z,18.13
2019-04-28T16:03:39.465Z,18.09
2019-04-28T16:06:28.795Z,18.06
2019-04-28T16:09:19.050Z,18.01
2019-04-28T16:12:11.021Z,17.98
2019-04-28T16:15:00.783Z,17.92
2019-04-28T16:17:49.737Z,17.88
2019-04-28T16:20:39.354Z,17.83
2019-04-28T16:23:28.374Z,17.78
2019-04-28T16:26:17.821Z,17.73
2019-04-28T16:29:07.782Z,17.66
2019-04-28T16:31:57.014Z,17.61
2019-04-28T16:34:46.456Z,17.55
2019-04-28T16:37:38.914Z,17.50
2019-04-28T16:40:56.751Z,17.45
2019-04-28T16:43:51.783Z,17.41
2019-04-28T16:46:41.508Z,17.34
2019-04-28T16:49:30.493Z,17.29
2019-04-28T16:52:19.487Z,17.23
2019-04-28T16:55:22.366Z,17.17
2019-04-28T16:58:29.103Z,17.11
2019-04-28T17:01:29.453Z,17.04
2019-04-28T17:04:19.048Z,16.98
2019-04-28T17:07:08.625Z,16.93
2019-04-28T17:10:00.632Z,16.85
2019-04-28T17:12:50.313Z,16.81
2019-04-28T17:15:39.726Z,16.76
2019-04-28T17:18:29.551Z,16.70
2019-04-28T17:21:19.128Z,16.64
2019-04-28T17:24:09.009Z,16.57
2019-04-28T17:26:58.939Z,16.51
2019-04-28T17:29:51.047Z,16.45
2019-04-28T17:32:39.607Z,16.39
2019-04-28T17:35:28.675Z,16.36
2019-04-28T17:38:18.213Z,16.31
2019-04-28T17:41:08.131Z,16.27
2019-04-28T17:43:57.429Z,16.20
2019-04-28T17:46:48.657Z,16.14
2019-04-28T17:49:38.909Z,16.09
2019-04-28T17:52:28.717Z,16.03
2019-04-28T17:55:18.327Z,15.98
2019-04-28T17:58:09.523Z,15.93
2019-04-28T18:01:15.967Z,15.86
2019-04-28T18:04:24.402Z,15.79
2019-04-28T18:07:22.048Z,15.73
2019-04-28T18:10:12.682Z,15.65
2019-04-28T18:13:02.499Z,15.58
2019-04-28T18:16:14.226Z,15.52
2019-04-28T18:19:07.406Z,15.46
2019-04-28T18:21:57.389Z,15.39
2019-04-28T18:24:49.904Z,15.32
2019-04-28T18:27:39.602Z,15.28
2019-04-28T18:30:30.321Z,15.21
2019-04-28T18:33:43.509Z,15.15
2019-04-28T18:36:40.295Z,15.10
2019-04-28T18:39:47.667Z,15.02
2019-04-28T18:42:44.868Z,14.95
2019-04-28T18:45:33.988Z,14.88
2019-04-28T18:48:24.084Z,14.81
2019-04-28T18:51:13.247Z,14.75
2019-04-28T18:54:02.718Z,14.69
2019-04-28T18:56:53.878Z,14.62
2019-04-28T18:59:44.648Z,14.55
2019-04-28T19:02:42.232Z,14.47
2019-04-28T19:05:34.897Z,14.40
2019-04-28T19:08:55.707Z,14.33
2019-04-28T19:11:48.836Z,14.24
2019-04-28T19:14:43.049Z,14.15
2019-04-28T19:17:47.756Z,14.07
2019-04-28T19:20:37.355Z,14.00
2019-04-28T19:23:26.698Z,13.89
2019-04-28T19:26:16.466Z,13.82
2019-04-28T19:29:05.453Z,13.73
2019-04-28T19:31:54.523Z,13.66
2019-04-28T19:34:43.368Z,13.58
2019-04-28T19:37:32.670Z,13.50
2019-04-28T19:40:22.348Z,13.44
2019-04-28T19:43:11.715Z,13.38
2019-04-28T19:46:02.498Z,13.29
2019-04-28T19:48:55.009Z,13.23
2019-04-28T19:51:44.937Z,13.15
2019-04-28T19:54:37.825Z,13.09
2019-04-28T19:57:35.004Z,13.02
2019-04-28T20:00:32.746Z,12.95
2019-04-28T20:03:22.040Z,12.86
2019-04-28T20:06:11.804Z,12.78
2019-04-28T20:09:02.079Z,12.73
2019-04-28T20:11:51.305Z,12.66
2019-04-28T20:14:41.177Z,12.59
2019-04-28T20:17:31.332Z,12.52
2019-04-28T20:20:21.011Z,12.46
2019-04-28T20:23:10.117Z,12.39
2019-04-28T20:25:59.137Z,12.34
2019-04-28T20:28:49.899Z,12.28
2019-04-28T20:31:39.205Z,12.21
2019-04-28T20:34:28.527Z,12.14
2019-04-28T20:37:33.328Z,12.08
2019-04-28T20:40:29.675Z,12.04
2019-04-28T20:43:20.247Z,11.94
2019-04-28T20:46:09.765Z,11.89
2019-04-28T20:48:59.817Z,11.83
2019-04-28T20:51:53.632Z,11.77
2019-04-28T20:54:47.717Z,11.71
2019-04-28T20:57:37.543Z,11.65
2019-04-28T21:00:29.751Z,11.57
2019-04-28T21:03:20.181Z,11.54
2019-04-28T21:06:13.893Z,11.48
2019-04-28T21:09:31.218Z,11.42
2019-04-28T21:12:23.919Z,11.39
2019-04-28T21:15:16.593Z,11.33
2019-04-28T21:18:06.492Z,11.30
2019-04-28T21:20:56.444Z,11.25
2019-04-28T21:23:48.659Z,11.22
2019-04-28T21:26:38.366Z,11.18
2019-04-28T21:29:28.204Z,11.16
2019-04-28T21:32:20.014Z,11.12
2019-04-28T21:35:14.934Z,11.10
2019-04-28T21:38:04.625Z,11.07
2019-04-28T21:40:54.210Z,11.04
2019-04-28T21:44:04.886Z,11.01
2019-04-28T21:47:01.877Z,10.99
2019-04-28T21:49:52.077Z,10.93
2019-04-28T21:52:41.789Z,10.90
2019-04-28T21:55:35.362Z,10.85
2019-04-28T21:58:32.913Z,10.81
2019-04-28T22:01:20.583Z,10.77
2019-04-28T22:04:12.612Z,10.73
2019-04-28T22:07:02.550Z,10.69
2019-04-28T22:09:53.893Z,10.64
2019-04-28T22:12:44.475Z,10.61
2019-04-28T22:15:33.802Z,10.56
2019-04-28T22:18:23.104Z,10.52
2019-04-28T22:21:12.132Z,10.48
2019-04-28T22:24:12.575Z,10.43
2019-04-28T22:27:01.766Z,10.40
2019-04-28T22:29:50.770Z,10.35
2019-04-28T22:32:40.751Z,10.33
2019-04-28T22:35:31.342Z,10.28
2019-04-28T22:38:20.261Z,10.24
2019-04-28T22:41:09.333Z,10.21
2019-04-28T22:44:00.249Z,10.15
2019-04-28T22:46:49.588Z,10.12
2019-04-28T22:49:39.410Z,10.08
2019-04-28T22:52:28.747Z,10.05
2019-04-28T22:55:22.422Z,10.00
2019-04-28T22:58:29.424Z,9.95
2019-04-28T23:01:37.192Z,9.91
2019-04-28T23:04:50.991Z,9.88
2019-04-28T23:07:40.352Z,9.83
2019-04-28T23:10:29.745Z,9.79
2019-04-28T23:13:19.478Z,9.75
2019-04-28T23:16:09.549Z,9.70
2019-04-28T23:18:59.093Z,9.68
2019-04-28T23:22:05.854Z,9.65
2019-04-28T23:24:55.250Z,9.61
2019-04-28T23:27:45.068Z,9.58
2019-04-28T23:30:43.431Z,9.53
2019-04-28T23:33:33.100Z,9.50
2019-04-28T23:36:22.451Z,9.48
2019-04-28T23:39:13.277Z,9.43
2019-04-28T23:42:27.437Z,9.40
2019-04-28T23:45:18.122Z,9.37
2019-04-28T23:48:07.192Z,9.32
2019-04-28T23:51:15.033Z,9.30
2019-04-28T23:54:06.507Z,9.27
2019-04-28T23:56:55.988Z,9.23
2019-04-28T23:59:45.823Z,9.19
